sensor_id;sensor_type;location;lat;lon;timestamp;pressure;altitude;pressure_sealevel;temperature;humidity
15007;BME280;7599;50.748;13.142;2023-07-31T00:00:13;95466.63;;;21.66;56.01
15007;BME280;7599;50.748;13.142;2023-07-31T00:03:16;95486.13;;;21.75;56.58
15007;BME280;7599;50.748;13.142;2023-07-31T00:06:18;95476.34;;;21.78;56.13
15007;BME280;7599;50.748;13.142;2023-07-31T00:09:22;95468.94;;;21.71;55.86
15007;BME280;7599;50.748;13.142;2023-07-31T00:12:25;95470.13;;;21.70;55.81
15007;BME280;7599;50.748;13.142;2023-07-31T00:15:28;95461.56;;;21.61;55.98
15007;BME280;7599;50.748;13.142;2023-07-31T00:18:30;95472.84;;;21.74;56.01
15007;BME280;7599;50.748;13.142;2023-07-31T00:21:33;95465.81;;;21.73;56.19
15007;BME280;7599;50.748;13.142;2023-07-31T00:24:37;95472.06;;;21.73;55.79
15007;BME280;7599;50.748;13.142;2023-07-31T00:27:39;95472.44;;;21.72;55.85
15007;BME280;7599;50.748;13.142;2023-07-31T00:30:45;95471.28;;;21.73;55.87
15007;BME280;7599;50.748;13.142;2023-07-31T00:33:48;95454.06;;;21.72;55.97
15007;BME280;7599;50.748;13.142;2023-07-31T00:36:50;95457.22;;;21.71;56.16
15007;BME280;7599;50.748;13.142;2023-07-31T00:39:54;95450.19;;;21.70;56.00
15007;BME280;7599;50.748;13.142;2023-07-31T00:42:57;95443.94;;;21.69;55.71
15007;BME280;7599;50.748;13.142;2023-07-31T00:46:03;95444.72;;;21.70;55.80
15007;BME280;7599;50.748;13.142;2023-07-31T00:49:07;95445.13;;;21.68;56.03
15007;BME280;7599;50.748;13.142;2023-07-31T00:52:10;95438.09;;;21.67;55.86
15007;BME280;7599;50.748;13.142;2023-07-31T00:55:14;95429.94;;;21.60;56.01
15007;BME280;7599;50.748;13.142;2023-07-31T00:58:16;95421.69;;;21.64;55.92
15007;BME280;7599;50.748;13.142;2023-07-31T01:01:19;95414.28;;;21.64;55.75
15007;BME280;7599;50.748;13.142;2023-07-31T01:04:23;95422.88;;;21.63;55.85
15007;BME280;7599;50.748;13.142;2023-07-31T01:07:31;95420.13;;;21.63;56.19
15007;BME280;7599;50.748;13.142;2023-07-31T01:10:45;95406.09;;;21.53;55.60
15007;BME280;7599;50.748;13.142;2023-07-31T01:13:49;95422.88;;;21.63;55.87
15007;BME280;7599;50.748;13.142;2023-07-31T01:16:52;95412.34;;;21.61;55.90
15007;BME280;7599;50.748;13.142;2023-07-31T01:19:55;95411.16;;;21.58;55.76
15007;BME280;7599;50.748;13.142;2023-07-31T01:23:35;95415.06;;;21.57;55.54
15007;BME280;7599;50.748;13.142;2023-07-31T01:26:40;95412.34;;;21.57;55.68
15007;BME280;7599;50.748;13.142;2023-07-31T01:29:51;95409.59;;;21.57;55.66
15007;BME280;7599;50.748;13.142;2023-07-31T01:32:56;95406.09;;;21.57;55.73
15007;BME280;7599;50.748;13.142;2023-07-31T01:36:00;95405.31;;;21.56;55.68
15007;BME280;7599;50.748;13.142;2023-07-31T01:39:03;95404.16;;;21.54;55.51
15007;BME280;7599;50.748;13.142;2023-07-31T01:42:08;95399.47;;;21.54;55.63
15007;BME280;7599;50.748;13.142;2023-07-31T01:45:11;95404.56;;;21.52;55.97
15007;BME280;7599;50.748;13.142;2023-07-31T01:48:14;95396.34;;;21.52;55.47
15007;BME280;7599;50.748;13.142;2023-07-31T01:51:16;95389.34;;;21.44;55.69
15007;BME280;7599;50.748;13.142;2023-07-31T01:54:19;95394.03;;;21.51;55.88
15007;BME280;7599;50.748;13.142;2023-07-31T01:57:23;95394.81;;;21.51;55.54
15007;BME280;7599;50.748;13.142;2023-07-31T02:00:25;95398.31;;;21.48;55.85
15007;BME280;7599;50.748;13.142;2023-07-31T02:03:28;95392.84;;;21.48;55.46
15007;BME280;7599;50.748;13.142;2023-07-31T02:06:31;95399.09;;;21.49;55.86
15007;BME280;7599;50.748;13.142;2023-07-31T02:09:33;95397.53;;;21.48;55.55
15007;BME280;7599;50.748;13.142;2023-07-31T02:12:38;95390.91;;;21.42;56.00
15007;BME280;7599;50.748;13.142;2023-07-31T02:15:40;95407.31;;;21.45;55.88
15007;BME280;7599;50.748;13.142;2023-07-31T02:18:43;95397.56;;;21.44;56.04
15007;BME280;7599;50.748;13.142;2023-07-31T02:21:45;95401.84;;;21.42;55.80
15007;BME280;7599;50.748;13.142;2023-07-31T02:24:48;95399.13;;;21.42;55.54
15007;BME280;7599;50.748;13.142;2023-07-31T02:27:52;95398.34;;;21.41;55.93
15007;BME280;7599;50.748;13.142;2023-07-31T02:30:55;95400.31;;;21.41;55.62
15007;BME280;7599;50.748;13.142;2023-07-31T02:33:57;95396.78;;;21.40;55.61
15007;BME280;7599;50.748;13.142;2023-07-31T02:37:00;95391.34;;;21.33;55.80
15007;BME280;7599;50.748;13.142;2023-07-31T02:40:02;95398.75;;;21.40;55.57
15007;BME280;7599;50.748;13.142;2023-07-31T02:43:06;95401.13;;;21.38;55.54
15007;BME280;7599;50.748;13.142;2023-07-31T02:46:09;95392.09;;;21.37;55.96
15007;BME280;7599;50.748;13.142;2023-07-31T02:49:12;95390.56;;;21.36;55.50
15007;BME280;7599;50.748;13.142;2023-07-31T02:52:14;95390.56;;;21.36;55.87
15007;BME280;7599;50.748;13.142;2023-07-31T02:55:17;95395.66;;;21.34;55.68
15007;BME280;7599;50.748;13.142;2023-07-31T02:58:21;95394.06;;;21.29;55.75
15007;BME280;7599;50.748;13.142;2023-07-31T03:01:23;95398.75;;;21.32;55.84
15007;BME280;7599;50.748;13.142;2023-07-31T03:04:26;95380.84;;;21.21;55.70
15007;BME280;7599;50.748;13.142;2023-07-31T03:07:28;95396.41;;;21.31;55.61
15007;BME280;7599;50.748;13.142;2023-07-31T03:10:32;95391.75;;;21.31;55.64
15007;BME280;7599;50.748;13.142;2023-07-31T03:13:36;95376.91;;;21.22;55.56
15007;BME280;7599;50.748;13.142;2023-07-31T03:16:38;95363.25;;;21.15;55.81
15007;BME280;7599;50.748;13.142;2023-07-31T03:19:41;95383.16;;;21.29;55.68
15007;BME280;7599;50.748;13.142;2023-07-31T03:22:44;95380.78;;;21.28;55.41
15007;BME280;7599;50.748;13.142;2023-07-31T03:25:55;95378.84;;;21.28;55.67
15007;BME280;7599;50.748;13.142;2023-07-31T03:28:59;95373.41;;;21.21;56.01
15007;BME280;7599;50.748;13.142;2023-07-31T03:32:02;95365.19;;;21.25;55.81
15007;BME280;7599;50.748;13.142;2023-07-31T03:35:05;95376.13;;;21.25;55.76
15007;BME280;7599;50.748;13.142;2023-07-31T03:38:08;95370.28;;;21.23;55.61
15007;BME280;7599;50.748;13.142;2023-07-31T03:41:13;95370.28;;;21.23;55.65
15007;BME280;7599;50.748;13.142;2023-07-31T03:44:17;95366.75;;;21.22;55.88
15007;BME280;7599;50.748;13.142;2023-07-31T03:47:20;95365.22;;;21.21;55.97
15007;BME280;7599;50.748;13.142;2023-07-31T03:50:22;95364.81;;;21.19;55.81
15007;BME280;7599;50.748;13.142;2023-07-31T03:53:26;95371.06;;;21.20;55.80
15007;BME280;7599;50.748;13.142;2023-07-31T03:56:29;95358.97;;;21.17;55.78
15007;BME280;7599;50.748;13.142;2023-07-31T03:59:37;95357.78;;;21.18;55.79
15007;BME280;7599;50.748;13.142;2023-07-31T04:02:40;95359.75;;;21.18;55.70
15007;BME280;7599;50.748;13.142;2023-07-31T04:05:43;95335.19;;;21.07;56.07
15007;BME280;7599;50.748;13.142;2023-07-31T04:08:45;95346.50;;;21.16;55.64
15007;BME280;7599;50.748;13.142;2023-07-31T04:11:48;95360.94;;;21.17;55.89
15007;BME280;7599;50.748;13.142;2023-07-31T04:14:52;95356.63;;;21.16;55.72
15007;BME280;7599;50.748;13.142;2023-07-31T04:17:54;95359.75;;;21.14;55.84
15007;BME280;7599;50.748;13.142;2023-07-31T04:20:57;95348.06;;;21.14;55.66
15007;BME280;7599;50.748;13.142;2023-07-31T04:24:00;95345.31;;;21.14;55.72
15007;BME280;7599;50.748;13.142;2023-07-31T04:27:03;95349.25;;;21.09;55.76
15007;BME280;7599;50.748;13.142;2023-07-31T04:30:08;95362.91;;;21.13;55.98
15007;BME280;7599;50.748;13.142;2023-07-31T04:33:11;95350.00;;;21.09;55.83
15007;BME280;7599;50.748;13.142;2023-07-31T04:36:13;95343.38;;;21.11;55.62
15007;BME280;7599;50.748;13.142;2023-07-31T04:39:16;95337.13;;;21.10;55.84
15007;BME280;7599;50.748;13.142;2023-07-31T04:42:18;95321.16;;;20.98;55.80
15007;BME280;7599;50.748;13.142;2023-07-31T04:45:22;95325.84;;;21.08;55.76
15007;BME280;7599;50.748;13.142;2023-07-31T04:48:25;95323.09;;;21.08;56.03
15007;BME280;7599;50.748;13.142;2023-07-31T04:51:27;95322.31;;;21.07;55.85
15007;BME280;7599;50.748;13.142;2023-07-31T04:54:30;95322.31;;;21.07;55.66
15007;BME280;7599;50.748;13.142;2023-07-31T04:57:32;95318.78;;;21.07;55.68
15007;BME280;7599;50.748;13.142;2023-07-31T05:00:36;95318.41;;;21.05;56.26
15007;BME280;7599;50.748;13.142;2023-07-31T05:03:39;95313.72;;;21.05;55.99
15007;BME280;7599;50.748;13.142;2023-07-31T05:06:42;95321.16;;;21.05;55.92
15007;BME280;7599;50.748;13.142;2023-07-31T05:09:45;95309.44;;;21.04;55.81
15007;BME280;7599;50.748;13.142;2023-07-31T05:12:47;95310.63;;;21.03;55.78
15007;BME280;7599;50.748;13.142;2023-07-31T05:15:51;95302.81;;;21.02;56.29
15007;BME280;7599;50.748;13.142;2023-07-31T05:18:54;95307.50;;;21.01;55.89
15007;BME280;7599;50.748;13.142;2023-07-31T05:21:56;95284.91;;;20.90;56.16
15007;BME280;7599;50.748;13.142;2023-07-31T05:24:59;95307.50;;;21.01;56.11
15007;BME280;7599;50.748;13.142;2023-07-31T05:28:02;95301.25;;;21.01;55.78
15007;BME280;7599;50.748;13.142;2023-07-31T05:31:06;95300.88;;;20.99;55.80
15007;BME280;7599;50.748;13.142;2023-07-31T05:34:08;95296.56;;;20.98;55.72
15007;BME280;7599;50.748;13.142;2023-07-31T05:37:11;95296.63;;;20.94;55.77
15007;BME280;7599;50.748;13.142;2023-07-31T05:40:14;95302.84;;;20.95;55.92
15007;BME280;7599;50.748;13.142;2023-07-31T05:43:16;95307.53;;;20.94;56.31
15007;BME280;7599;50.748;13.142;2023-07-31T05:46:20;95305.19;;;20.96;56.21
15007;BME280;7599;50.748;13.142;2023-07-31T05:49:23;95297.81;;;20.82;56.04
15007;BME280;7599;50.748;13.142;2023-07-31T05:52:25;95291.56;;;20.82;55.71
15007;BME280;7599;50.748;13.142;2023-07-31T05:55:30;95313.78;;;20.95;56.14
15007;BME280;7599;50.748;13.142;2023-07-31T05:58:32;95311.41;;;20.93;55.74
15007;BME280;7599;50.748;13.142;2023-07-31T06:01:36;95304.81;;;20.91;55.93
15007;BME280;7599;50.748;13.142;2023-07-31T06:04:39;95302.84;;;20.91;56.11
15007;BME280;7599;50.748;13.142;2023-07-31T06:07:42;95310.28;;;20.91;56.28
15007;BME280;7599;50.748;13.142;2023-07-31T06:10:44;95308.72;;;20.90;56.07
15007;BME280;7599;50.748;13.142;2023-07-31T06:13:47;95302.47;;;20.89;55.84
15007;BME280;7599;50.748;13.142;2023-07-31T06:16:51;95308.31;;;20.88;55.99
15007;BME280;7599;50.748;13.142;2023-07-31T06:19:54;95305.59;;;20.88;55.84
15007;BME280;7599;50.748;13.142;2023-07-31T06:22:57;95315.75;;;20.87;55.99
15007;BME280;7599;50.748;13.142;2023-07-31T06:25:59;95304.03;;;20.87;56.26
15007;BME280;7599;50.748;13.142;2023-07-31T06:29:02;95305.59;;;20.88;55.97
15007;BME280;7599;50.748;13.142;2023-07-31T06:32:06;95300.53;;;20.86;55.91
15007;BME280;7599;50.748;13.142;2023-07-31T06:35:09;95295.06;;;20.86;56.03
15007;BME280;7599;50.748;13.142;2023-07-31T06:38:12;95291.16;;;20.83;56.17
15007;BME280;7599;50.748;13.142;2023-07-31T06:41:14;95274.44;;;20.71;56.30
15007;BME280;7599;50.748;13.142;2023-07-31T06:44:17;95291.94;;;20.84;56.13
15007;BME280;7599;50.748;13.142;2023-07-31T06:47:21;95291.94;;;20.84;56.05
15007;BME280;7599;50.748;13.142;2023-07-31T06:50:23;95266.59;;;20.76;56.03
15007;BME280;7599;50.748;13.142;2023-07-31T06:53:26;95277.53;;;20.76;56.80
15007;BME280;7599;50.748;13.142;2023-07-31T06:56:29;95299.31;;;20.98;57.58
15007;BME280;7599;50.748;13.142;2023-07-31T06:59:31;95303.19;;;21.04;58.25
15007;BME280;7599;50.748;13.142;2023-07-31T07:02:35;95295.00;;;21.04;58.03
15007;BME280;7599;50.748;13.142;2023-07-31T07:05:38;95292.63;;;21.06;58.20
15007;BME280;7599;50.748;13.142;2023-07-31T07:08:40;95299.72;;;21.00;58.32
15007;BME280;7599;50.748;13.142;2023-07-31T07:11:43;95302.03;;;21.01;58.05
15007;BME280;7599;50.748;13.142;2023-07-31T07:14:46;95308.69;;;21.00;58.13
15007;BME280;7599;50.748;13.142;2023-07-31T07:17:54;95307.13;;;20.96;58.03
15007;BME280;7599;50.748;13.142;2023-07-31T07:20:58;95313.78;;;20.91;58.02
15007;BME280;7599;50.748;13.142;2023-07-31T07:24:04;95316.47;;;21.02;58.15
15007;BME280;7599;50.748;13.142;2023-07-31T07:27:07;95301.31;;;20.87;58.09
15007;BME280;7599;50.748;13.142;2023-07-31T07:30:10;95315.31;;;20.99;58.07
15007;BME280;7599;50.748;13.142;2023-07-31T07:33:14;95306.72;;;20.97;58.37
15007;BME280;7599;50.748;13.142;2023-07-31T07:36:20;95302.84;;;20.91;58.18
15007;BME280;7599;50.748;13.142;2023-07-31T07:39:23;95297.38;;;20.95;58.29
15007;BME280;7599;50.748;13.142;2023-07-31T07:42:26;95315.72;;;20.94;58.45
15007;BME280;7599;50.748;13.142;2023-07-31T07:45:36;95310.28;;;20.91;58.25
15007;BME280;7599;50.748;13.142;2023-07-31T07:48:43;95292.34;;;20.79;58.21
15007;BME280;7599;50.748;13.142;2023-07-31T07:51:47;95290.41;;;20.79;58.25
15007;BME280;7599;50.748;13.142;2023-07-31T07:54:51;95326.25;;;20.92;57.99
15007;BME280;7599;50.748;13.142;2023-07-31T07:57:53;95311.47;;;20.90;58.13
15007;BME280;7599;50.748;13.142;2023-07-31T08:00:56;95315.34;;;20.92;58.15
15007;BME280;7599;50.748;13.142;2023-07-31T08:04:00;95311.06;;;20.91;58.25
15007;BME280;7599;50.748;13.142;2023-07-31T08:07:03;95313.78;;;20.91;58.13
15007;BME280;7599;50.748;13.142;2023-07-31T08:10:07;95310.28;;;20.91;58.09
15007;BME280;7599;50.748;13.142;2023-07-31T08:13:09;95315.34;;;20.89;58.17
15007;BME280;7599;50.748;13.142;2023-07-31T08:16:12;95308.34;;;20.80;58.52
15007;BME280;7599;50.748;13.142;2023-07-31T08:19:16;95320.44;;;20.87;58.33
15007;BME280;7599;50.748;13.142;2023-07-31T08:22:19;95332.13;;;20.87;58.03
15007;BME280;7599;50.748;13.142;2023-07-31T08:25:21;95327.44;;;20.88;58.42
15007;BME280;7599;50.748;13.142;2023-07-31T08:28:25;95315.81;;;20.69;58.21
15007;BME280;7599;50.748;13.142;2023-07-31T08:31:28;95329.00;;;20.85;58.18
15007;BME280;7599;50.748;13.142;2023-07-31T08:34:32;95325.91;;;20.83;58.46
15007;BME280;7599;50.748;13.142;2023-07-31T08:37:35;95314.59;;;20.81;58.10
15007;BME280;7599;50.748;13.142;2023-07-31T08:40:38;95316.16;;;20.71;58.14
15007;BME280;7599;50.748;13.142;2023-07-31T08:43:40;95312.66;;;20.74;58.12
15007;BME280;7599;50.748;13.142;2023-07-31T08:46:45;95325.13;;;20.79;58.53
15007;BME280;7599;50.748;13.142;2023-07-31T08:49:51;95329.41;;;20.80;58.54
15007;BME280;7599;50.748;13.142;2023-07-31T08:52:54;95330.19;;;20.80;58.54
15007;BME280;7599;50.748;13.142;2023-07-31T08:55:59;95327.88;;;20.79;58.34
15007;BME280;7599;50.748;13.142;2023-07-31T08:59:03;95326.69;;;20.80;58.21
15007;BME280;7599;50.748;13.142;2023-07-31T09:02:08;95326.69;;;20.80;58.09
15007;BME280;7599;50.748;13.142;2023-07-31T09:05:12;95311.13;;;20.70;58.32
15007;BME280;7599;50.748;13.142;2023-07-31T09:08:18;95320.84;;;20.78;58.44
15007;BME280;7599;50.748;13.142;2023-07-31T09:11:22;95321.22;;;20.76;58.56
15007;BME280;7599;50.748;13.142;2023-07-31T09:14:26;95322.81;;;20.77;58.44
15007;BME280;7599;50.748;13.142;2023-07-31T09:17:29;95307.63;;;20.66;58.38
15007;BME280;7599;50.748;13.142;2023-07-31T09:20:34;95317.72;;;20.76;58.13
15007;BME280;7599;50.748;13.142;2023-07-31T09:23:42;95291.22;;;20.62;58.15
15007;BME280;7599;50.748;13.142;2023-07-31T09:26:45;95314.97;;;20.76;58.02
15007;BME280;7599;50.748;13.142;2023-07-31T09:29:58;95301.75;;;20.67;58.42
15007;BME280;7599;50.748;13.142;2023-07-31T09:33:03;95316.56;;;20.77;58.13
15007;BME280;7599;50.748;13.142;2023-07-31T09:36:08;95317.72;;;20.76;58.36
15007;BME280;7599;50.748;13.142;2023-07-31T09:39:16;95315.03;;;20.72;58.12
15007;BME280;7599;50.748;13.142;2023-07-31T09:42:24;95309.16;;;20.74;58.33
15007;BME280;7599;50.748;13.142;2023-07-31T09:45:28;95309.16;;;20.74;58.21
15007;BME280;7599;50.748;13.142;2023-07-31T09:48:41;95304.88;;;20.73;58.24
15007;BME280;7599;50.748;13.142;2023-07-31T09:51:45;95308.38;;;20.73;58.35
15007;BME280;7599;50.748;13.142;2023-07-31T09:54:48;95303.28;;;20.72;58.70
15007;BME280;7599;50.748;13.142;2023-07-31T09:57:50;95304.47;;;20.74;58.49
15007;BME280;7599;50.748;13.142;2023-07-31T10:00:53;95299.78;;;20.75;58.54
15007;BME280;7599;50.748;13.142;2023-07-31T10:03:57;95297.47;;;20.73;58.59
15007;BME280;7599;50.748;13.142;2023-07-31T10:07:03;95295.09;;;20.72;58.78
15007;BME280;7599;50.748;13.142;2023-07-31T10:10:07;95287.31;;;20.70;58.96
15007;BME280;7599;50.748;13.142;2023-07-31T10:13:11;95270.56;;;20.65;58.96
15007;BME280;7599;50.748;13.142;2023-07-31T10:16:15;95274.06;;;20.72;58.94
15007;BME280;7599;50.748;13.142;2023-07-31T10:19:18;95268.59;;;20.65;59.13
15007;BME280;7599;50.748;13.142;2023-07-31T10:22:22;95272.47;;;20.68;58.80
15007;BME280;7599;50.748;13.142;2023-07-31T10:25:26;95257.28;;;20.63;58.98
15007;BME280;7599;50.748;13.142;2023-07-31T10:28:29;95256.50;;;20.70;59.39
15007;BME280;7599;50.748;13.142;2023-07-31T10:31:35;95244.03;;;20.58;59.33
15007;BME280;7599;50.748;13.142;2023-07-31T10:34:39;95264.69;;;20.73;58.90
15007;BME280;7599;50.748;13.142;2023-07-31T10:37:44;95265.47;;;20.74;59.00
15007;BME280;7599;50.748;13.142;2023-07-31T10:40:49;95263.09;;;20.76;58.92
15007;BME280;7599;50.748;13.142;2023-07-31T10:43:54;95262.31;;;20.79;58.76
15007;BME280;7599;50.748;13.142;2023-07-31T10:47:00;95253.34;;;20.82;58.64
15007;BME280;7599;50.748;13.142;2023-07-31T10:50:23;95255.66;;;20.80;58.83
15007;BME280;7599;50.748;13.142;2023-07-31T10:53:29;95257.63;;;20.76;58.45
15007;BME280;7599;50.748;13.142;2023-07-31T10:56:37;95258.03;;;20.74;58.50
15007;BME280;7599;50.748;13.142;2023-07-31T10:59:40;95261.94;;;20.77;58.65
15007;BME280;7599;50.748;13.142;2023-07-31T11:02:56;95241.31;;;20.65;58.66
15007;BME280;7599;50.748;13.142;2023-07-31T11:06:01;95249.84;;;20.74;58.85
15007;BME280;7599;50.748;13.142;2023-07-31T11:09:06;95257.97;;;20.85;58.57
15007;BME280;7599;50.748;13.142;2023-07-31T11:12:08;95232.25;;;20.90;57.98
15007;BME280;7599;50.748;13.142;2023-07-31T11:15:11;95233.38;;;20.92;58.40
15007;BME280;7599;50.748;13.142;2023-07-31T11:18:14;95222.09;;;20.90;58.49
15007;BME280;7599;50.748;13.142;2023-07-31T11:21:20;95216.97;;;20.96;57.94
15007;BME280;7599;50.748;13.142;2023-07-31T11:24:24;95204.50;;;20.91;58.25
15007;BME280;7599;50.748;13.142;2023-07-31T11:27:27;95208.38;;;20.97;57.96
15007;BME280;7599;50.748;13.142;2023-07-31T11:30:30;95212.66;;;20.98;57.84
15007;BME280;7599;50.748;13.142;2023-07-31T11:33:32;95209.97;;;20.95;57.95
15007;BME280;7599;50.748;13.142;2023-07-31T11:36:35;95219.69;;;21.03;57.62
15007;BME280;7599;50.748;13.142;2023-07-31T11:39:39;95211.44;;;21.06;57.62
15007;BME280;7599;50.748;13.142;2023-07-31T11:42:42;95199.03;;;20.95;57.88
15007;BME280;7599;50.748;13.142;2023-07-31T11:45:47;95188.47;;;20.97;58.10
15007;BME280;7599;50.748;13.142;2023-07-31T11:48:50;95218.88;;;21.06;57.72
15007;BME280;7599;50.748;13.142;2023-07-31T11:51:53;95214.59;;;21.05;57.73
15007;BME280;7599;50.748;13.142;2023-07-31T11:54:57;95188.13;;;20.91;58.09
15007;BME280;7599;50.748;13.142;2023-07-31T11:58:00;95197.41;;;21.04;57.62
15007;BME280;7599;50.748;13.142;2023-07-31T12:01:04;95204.06;;;21.03;57.67
15007;BME280;7599;50.748;13.142;2023-07-31T12:04:07;95199.75;;;21.02;57.78
15007;BME280;7599;50.748;13.142;2023-07-31T12:07:10;95185.72;;;21.04;57.62
15007;BME280;7599;50.748;13.142;2023-07-31T12:10:25;95187.28;;;21.01;58.20
15007;BME280;7599;50.748;13.142;2023-07-31T12:13:31;95205.63;;;20.97;58.21
15007;BME280;7599;50.748;13.142;2023-07-31T12:16:34;95197.50;;;20.90;58.22
15007;BME280;7599;50.748;13.142;2023-07-31T12:19:37;95185.41;;;20.91;58.29
15007;BME280;7599;50.748;13.142;2023-07-31T12:22:39;95181.91;;;20.87;58.15
15007;BME280;7599;50.748;13.142;2023-07-31T12:25:44;95186.94;;;20.96;57.84
15007;BME280;7599;50.748;13.142;2023-07-31T12:28:47;95182.59;;;20.98;58.03
15007;BME280;7599;50.748;13.142;2023-07-31T12:31:50;95167.06;;;20.88;58.14
15007;BME280;7599;50.748;13.142;2023-07-31T12:34:52;95176.38;;;20.98;58.34
15007;BME280;7599;50.748;13.142;2023-07-31T12:37:55;95172.84;;;20.97;58.07
15007;BME280;7599;50.748;13.142;2023-07-31T12:41:01;95163.91;;;20.93;58.17
15007;BME280;7599;50.748;13.142;2023-07-31T12:44:04;95161.56;;;20.99;58.28
15007;BME280;7599;50.748;13.142;2023-07-31T12:47:06;95148.69;;;20.96;57.95
15007;BME280;7599;50.748;13.142;2023-07-31T12:50:09;95159.59;;;20.99;58.02
15007;BME280;7599;50.748;13.142;2023-07-31T12:53:12;95152.19;;;20.96;57.59
15007;BME280;7599;50.748;13.142;2023-07-31T12:56:16;95144.41;;;20.95;57.52
15007;BME280;7599;50.748;13.142;2023-07-31T12:59:19;95143.19;;;20.99;58.14
15007;BME280;7599;50.748;13.142;2023-07-31T13:02:21;95107.03;;;20.81;58.32
15007;BME280;7599;50.748;13.142;2023-07-31T13:05:27;95131.88;;;20.97;58.28
15007;BME280;7599;50.748;13.142;2023-07-31T13:08:30;95133.44;;;20.98;58.16
15007;BME280;7599;50.748;13.142;2023-07-31T13:11:34;95115.94;;;20.89;58.19
15007;BME280;7599;50.748;13.142;2023-07-31T13:14:36;95124.09;;;20.96;58.26
15007;BME280;7599;50.748;13.142;2023-07-31T13:17:39;95120.56;;;20.99;58.20
15007;BME280;7599;50.748;13.142;2023-07-31T13:20:42;95123.25;;;21.02;58.12
15007;BME280;7599;50.748;13.142;2023-07-31T13:23:44;95093.63;;;20.97;58.02
15007;BME280;7599;50.748;13.142;2023-07-31T13:26:48;95104.53;;;21.01;57.92
15007;BME280;7599;50.748;13.142;2023-07-31T13:29:51;95097.56;;;20.93;57.87
15007;BME280;7599;50.748;13.142;2023-07-31T13:32:54;95111.50;;;21.09;57.78
15007;BME280;7599;50.748;13.142;2023-07-31T13:35:57;95091.66;;;20.98;57.62
15007;BME280;7599;50.748;13.142;2023-07-31T13:38:59;95083.88;;;20.96;57.40
15007;BME280;7599;50.748;13.142;2023-07-31T13:42:05;95081.94;;;20.97;57.12
15007;BME280;7599;50.748;13.142;2023-07-31T13:45:09;95062.88;;;20.90;57.24
15007;BME280;7599;50.748;13.142;2023-07-31T13:48:12;95083.47;;;21.01;57.10
15007;BME280;7599;50.748;13.142;2023-07-31T13:51:15;95074.88;;;21.03;57.42
15007;BME280;7599;50.748;13.142;2023-07-31T13:54:17;95065.19;;;20.95;57.13
15007;BME280;7599;50.748;13.142;2023-07-31T13:57:22;95067.91;;;20.95;57.05
15007;BME280;7599;50.748;13.142;2023-07-31T14:00:25;95073.72;;;21.00;57.16
15007;BME280;7599;50.748;13.142;2023-07-31T14:03:28;95069.44;;;20.99;57.17
15007;BME280;7599;50.748;13.142;2023-07-31T14:06:31;95072.09;;;21.06;57.11
15007;BME280;7599;50.748;13.142;2023-07-31T14:09:33;95059.72;;;20.95;57.01
15007;BME280;7599;50.748;13.142;2023-07-31T14:12:37;95079.53;;;21.06;57.05
15007;BME280;7599;50.748;13.142;2023-07-31T14:15:44;95076.44;;;21.04;56.88
15007;BME280;7599;50.748;13.142;2023-07-31T14:18:47;95076.44;;;21.04;57.01
15007;BME280;7599;50.748;13.142;2023-07-31T14:21:50;95073.72;;;21.00;57.13
15007;BME280;7599;50.748;13.142;2023-07-31T14:25:10;95076.88;;;20.95;57.20
15007;BME280;7599;50.748;13.142;2023-07-31T14:28:15;95056.72;;;20.78;57.28
15007;BME280;7599;50.748;13.142;2023-07-31T14:31:17;95046.59;;;20.72;57.38
15007;BME280;7599;50.748;13.142;2023-07-31T14:34:20;95079.66;;;20.88;57.52
15007;BME280;7599;50.748;13.142;2023-07-31T14:37:25;95072.31;;;20.78;57.33
15007;BME280;7599;50.748;13.142;2023-07-31T14:40:28;95063.34;;;20.77;57.38
15007;BME280;7599;50.748;13.142;2023-07-31T14:43:32;95076.13;;;20.91;57.29
15007;BME280;7599;50.748;13.142;2023-07-31T14:46:35;95064.44;;;20.91;57.25
15007;BME280;7599;50.748;13.142;2023-07-31T14:49:38;95075.34;;;20.91;57.51
15007;BME280;7599;50.748;13.142;2023-07-31T14:52:41;95078.09;;;20.91;57.15
15007;BME280;7599;50.748;13.142;2023-07-31T14:55:44;95077.31;;;20.90;57.37
15007;BME280;7599;50.748;13.142;2023-07-31T14:58:48;95081.59;;;20.91;57.18
15007;BME280;7599;50.748;13.142;2023-07-31T15:01:50;95064.88;;;20.82;57.10
15007;BME280;7599;50.748;13.142;2023-07-31T15:04:54;95073.41;;;20.91;57.25
15007;BME280;7599;50.748;13.142;2023-07-31T15:07:57;95064.78;;;20.93;56.83
15007;BME280;7599;50.748;13.142;2023-07-31T15:10:59;95081.59;;;20.91;56.98
15007;BME280;7599;50.748;13.142;2023-07-31T15:14:03;95085.50;;;20.90;57.11
15007;BME280;7599;50.748;13.142;2023-07-31T15:17:06;95065.66;;;20.79;56.89
15007;BME280;7599;50.748;13.142;2023-07-31T15:20:10;95069.53;;;20.85;56.87
15007;BME280;7599;50.748;13.142;2023-07-31T15:23:20;95074.22;;;20.84;56.95
15007;BME280;7599;50.748;13.142;2023-07-31T15:26:26;95072.31;;;20.78;57.19
15007;BME280;7599;50.748;13.142;2023-07-31T15:29:45;95073.41;;;20.88;57.33
15007;BME280;7599;50.748;13.142;2023-07-31T15:33:12;95052.41;;;20.81;57.16
15007;BME280;7599;50.748;13.142;2023-07-31T15:36:23;95056.69;;;20.82;57.33
15007;BME280;7599;50.748;13.142;2023-07-31T15:39:53;95056.25;;;20.87;57.26
15007;BME280;7599;50.748;13.142;2023-07-31T15:43:09;95054.72;;;20.86;57.11
15007;BME280;7599;50.748;13.142;2023-07-31T15:46:26;95056.28;;;20.83;57.09
15007;BME280;7599;50.748;13.142;2023-07-31T15:49:45;95045.31;;;20.87;57.13
15007;BME280;7599;50.748;13.142;2023-07-31T15:53:01;95018.06;;;20.76;57.42
15007;BME280;7599;50.748;13.142;2023-07-31T15:56:18;95025.47;;;20.83;56.95
15007;BME280;7599;50.748;13.142;2023-07-31T15:59:55;95017.69;;;20.81;56.96
15007;BME280;7599;50.748;13.142;2023-07-31T16:07:06;95011.44;;;20.81;57.04
15007;BME280;7599;50.748;13.142;2023-07-31T16:10:13;95014.88;;;20.89;56.89
15007;BME280;7599;50.748;13.142;2023-07-31T16:13:29;95024.25;;;20.88;57.11
15007;BME280;7599;50.748;13.142;2023-07-31T16:16:35;95026.97;;;20.88;56.93
15007;BME280;7599;50.748;13.142;2023-07-31T16:19:39;95010.69;;;20.77;56.86